sensor_id;sensor_type;location;lat;lon;timestamp;P1;durP1;ratioP1;P2;durP2;ratioP2
57551;SDS011;43379;48.160;14.036;2023-06-24T00:01:23;5.13;;;3.07;;
57551;SDS011;43379;48.160;14.036;2023-06-24T00:03:49;2.53;;;2.17;;
57551;SDS011;43379;48.160;14.036;2023-06-24T00:06:21;2.10;;;1.90;;
57551;SDS011;43379;48.160;14.036;2023-06-24T00:08:50;2.23;;;2.03;;
57551;SDS011;43379;48.160;14.036;2023-06-24T00:11:17;2.33;;;1.90;;
57551;SDS011;43379;48.160;14.036;2023-06-24T00:13:43;1.70;;;1.60;;
57551;SDS011;43379;48.160;14.036;2023-06-24T00:16:09;2.87;;;1.80;;
57551;SDS011;43379;48.160;14.036;2023-06-24T00:18:36;1.60;;;1.50;;
57551;SDS011;43379;48.160;14.036;2023-06-24T00:21:05;2.00;;;1.80;;
57551;SDS011;43379;48.160;14.036;2023-06-24T00:23:31;2.17;;;1.60;;
57551;SDS011;43379;48.160;14.036;2023-06-24T00:25:59;1.80;;;1.57;;
57551;SDS011;43379;48.160;14.036;2023-06-24T00:28:26;1.70;;;1.57;;
57551;SDS011;43379;48.160;14.036;2023-06-24T00:30:52;2.00;;;1.80;;
57551;SDS011;43379;48.160;14.036;2023-06-24T00:33:18;1.60;;;1.50;;
57551;SDS011;43379;48.160;14.036;2023-06-24T00:35:47;1.53;;;1.33;;
57551;SDS011;43379;48.160;14.036;2023-06-24T00:38:12;2.63;;;1.90;;
57551;SDS011;43379;48.160;14.036;2023-06-24T00:40:38;1.67;;;1.57;;
57551;SDS011;43379;48.160;14.036;2023-06-24T00:43:04;1.50;;;1.40;;
57551;SDS011;43379;48.160;14.036;2023-06-24T00:45:31;1.90;;;1.70;;
57551;SDS011;43379;48.160;14.036;2023-06-24T00:47:57;1.93;;;1.73;;
57551;SDS011;43379;48.160;14.036;2023-06-24T00:50:23;1.80;;;1.50;;
57551;SDS011;43379;48.160;14.036;2023-06-24T00:52:49;1.80;;;1.60;;
57551;SDS011;43379;48.160;14.036;2023-06-24T00:55:16;1.53;;;1.43;;
57551;SDS011;43379;48.160;14.036;2023-06-24T00:57:46;1.90;;;1.70;;
57551;SDS011;43379;48.160;14.036;2023-06-24T01:00:17;2.17;;;1.97;;
57551;SDS011;43379;48.160;14.036;2023-06-24T01:02:46;2.30;;;2.10;;
57551;SDS011;43379;48.160;14.036;2023-06-24T01:05:12;2.17;;;1.97;;
57551;SDS011;43379;48.160;14.036;2023-06-24T01:07:39;2.07;;;1.87;;
57551;SDS011;43379;48.160;14.036;2023-06-24T01:10:06;2.10;;;1.90;;
57551;SDS011;43379;48.160;14.036;2023-06-24T01:12:34;2.50;;;2.10;;
57551;SDS011;43379;48.160;14.036;2023-06-24T01:15:03;2.27;;;2.07;;
57551;SDS011;43379;48.160;14.036;2023-06-24T01:24:14;2.47;;;2.27;;
57551;SDS011;43379;48.160;14.036;2023-06-24T01:29:30;3.00;;;2.40;;
57551;SDS011;43379;48.160;14.036;2023-06-24T01:32:06;2.27;;;2.07;;
57551;SDS011;43379;48.160;14.036;2023-06-24T01:34:50;2.50;;;2.10;;
57551;SDS011;43379;48.160;14.036;2023-06-24T01:37:26;2.83;;;2.63;;
57551;SDS011;43379;48.160;14.036;2023-06-24T01:40:36;2.47;;;2.27;;
57551;SDS011;43379;48.160;14.036;2023-06-24T01:43:08;3.03;;;2.80;;
57551;SDS011;43379;48.160;14.036;2023-06-24T01:45:52;2.87;;;2.67;;
57551;SDS011;43379;48.160;14.036;2023-06-24T01:48:29;3.80;;;3.23;;
57551;SDS011;43379;48.160;14.036;2023-06-24T01:53:33;3.57;;;3.27;;
57551;SDS011;43379;48.160;14.036;2023-06-24T01:56:02;3.50;;;3.20;;
57551;SDS011;43379;48.160;14.036;2023-06-24T01:58:30;3.50;;;3.20;;
57551;SDS011;43379;48.160;14.036;2023-06-24T02:00:57;3.00;;;2.73;;
57551;SDS011;43379;48.160;14.036;2023-06-24T02:03:24;3.60;;;3.30;;
57551;SDS011;43379;48.160;14.036;2023-06-24T02:05:51;3.53;;;3.23;;
57551;SDS011;43379;48.160;14.036;2023-06-24T02:08:19;3.00;;;2.80;;
57551;SDS011;43379;48.160;14.036;2023-06-24T02:10:46;4.03;;;3.73;;
57551;SDS011;43379;48.160;14.036;2023-06-24T02:13:13;3.60;;;3.30;;
57551;SDS011;43379;48.160;14.036;2023-06-24T02:15:40;3.50;;;3.20;;
57551;SDS011;43379;48.160;14.036;2023-06-24T02:18:08;4.17;;;3.87;;
57551;SDS011;43379;48.160;14.036;2023-06-24T02:20:34;4.60;;;3.80;;
57551;SDS011;43379;48.160;14.036;2023-06-24T02:23:03;3.90;;;3.60;;
57551;SDS011;43379;48.160;14.036;2023-06-24T02:25:31;3.83;;;3.40;;
57551;SDS011;43379;48.160;14.036;2023-06-24T02:27:57;3.90;;;3.50;;
57551;SDS011;43379;48.160;14.036;2023-06-24T02:30:23;3.80;;;3.40;;
57551;SDS011;43379;48.160;14.036;2023-06-24T02:32:49;4.40;;;4.00;;
57551;SDS011;43379;48.160;14.036;2023-06-24T02:35:15;5.17;;;4.30;;
57551;SDS011;43379;48.160;14.036;2023-06-24T02:37:41;4.53;;;4.20;;
57551;SDS011;43379;48.160;14.036;2023-06-24T02:40:07;3.50;;;3.20;;
57551;SDS011;43379;48.160;14.036;2023-06-24T02:42:35;3.60;;;3.30;;
57551;SDS011;43379;48.160;14.036;2023-06-24T02:45:01;3.80;;;3.50;;
57551;SDS011;43379;48.160;14.036;2023-06-24T02:47:28;4.70;;;3.63;;
57551;SDS011;43379;48.160;14.036;2023-06-24T02:49:54;3.93;;;3.63;;
57551;SDS011;43379;48.160;14.036;2023-06-24T02:52:22;4.47;;;4.07;;
57551;SDS011;43379;48.160;14.036;2023-06-24T02:54:48;3.83;;;3.53;;
57551;SDS011;43379;48.160;14.036;2023-06-24T02:57:14;4.37;;;3.97;;
57551;SDS011;43379;48.160;14.036;2023-06-24T02:59:40;4.50;;;3.20;;
57551;SDS011;43379;48.160;14.036;2023-06-24T03:02:06;3.63;;;3.33;;
57551;SDS011;43379;48.160;14.036;2023-06-24T03:04:32;5.57;;;4.00;;
57551;SDS011;43379;48.160;14.036;2023-06-24T03:06:59;3.67;;;3.37;;
57551;SDS011;43379;48.160;14.036;2023-06-24T03:09:31;3.80;;;3.50;;
57551;SDS011;43379;48.160;14.036;2023-06-24T03:11:59;4.87;;;3.83;;
57551;SDS011;43379;48.160;14.036;2023-06-24T03:14:24;4.00;;;3.70;;
57551;SDS011;43379;48.160;14.036;2023-06-24T03:16:50;4.30;;;3.90;;
57551;SDS011;43379;48.160;14.036;2023-06-24T03:19:15;3.63;;;3.30;;
57551;SDS011;43379;48.160;14.036;2023-06-24T03:21:41;4.10;;;3.70;;
57551;SDS011;43379;48.160;14.036;2023-06-24T03:24:07;4.27;;;3.93;;
57551;SDS011;43379;48.160;14.036;2023-06-24T03:26:34;4.20;;;3.90;;
57551;SDS011;43379;48.160;14.036;2023-06-24T03:29:00;4.07;;;3.73;;
57551;SDS011;43379;48.160;14.036;2023-06-24T03:31:26;4.47;;;4.10;;
57551;SDS011;43379;48.160;14.036;2023-06-24T03:33:52;4.20;;;3.80;;
57551;SDS011;43379;48.160;14.036;2023-06-24T03:36:18;4.77;;;4.40;;
57551;SDS011;43379;48.160;14.036;2023-06-24T03:38:44;5.17;;;4.77;;
57551;SDS011;43379;48.160;14.036;2023-06-24T03:41:09;5.53;;;5.03;;
57551;SDS011;43379;48.160;14.036;2023-06-24T03:43:35;4.90;;;4.50;;
57551;SDS011;43379;48.160;14.036;2023-06-24T03:46:00;4.87;;;4.37;;
57551;SDS011;43379;48.160;14.036;2023-06-24T03:48:27;5.20;;;4.70;;
57551;SDS011;43379;48.160;14.036;2023-06-24T03:50:53;5.37;;;4.50;;
57551;SDS011;43379;48.160;14.036;2023-06-24T03:53:19;4.60;;;4.20;;
57551;SDS011;43379;48.160;14.036;2023-06-24T03:55:44;4.90;;;4.50;;
57551;SDS011;43379;48.160;14.036;2023-06-24T03:58:10;4.53;;;4.13;;
57551;SDS011;43379;48.160;14.036;2023-06-24T04:00:36;4.77;;;4.37;;
57551;SDS011;43379;48.160;14.036;2023-06-24T04:03:05;5.03;;;4.63;;
57551;SDS011;43379;48.160;14.036;2023-06-24T04:05:34;6.40;;;4.27;;
57551;SDS011;43379;48.160;14.036;2023-06-24T04:08:00;5.00;;;4.60;;
57551;SDS011;43379;48.160;14.036;2023-06-24T04:10:28;5.13;;;4.73;;
57551;SDS011;43379;48.160;14.036;2023-06-24T04:12:54;4.90;;;4.40;;
57551;SDS011;43379;48.160;14.036;2023-06-24T04:15:19;5.63;;;5.07;;
57551;SDS011;43379;48.160;14.036;2023-06-24T04:17:45;5.20;;;4.80;;
57551;SDS011;43379;48.160;14.036;2023-06-24T04:20:11;4.93;;;4.53;;
57551;SDS011;43379;48.160;14.036;2023-06-24T04:22:37;6.73;;;5.20;;
57551;SDS011;43379;48.160;14.036;2023-06-24T04:25:04;5.77;;;5.27;;
57551;SDS011;43379;48.160;14.036;2023-06-24T04:27:31;4.93;;;4.53;;
57551;SDS011;43379;48.160;14.036;2023-06-24T04:29:57;5.33;;;4.83;;
57551;SDS011;43379;48.160;14.036;2023-06-24T04:32:23;5.03;;;4.63;;
57551;SDS011;43379;48.160;14.036;2023-06-24T04:34:49;5.23;;;4.77;;
57551;SDS011;43379;48.160;14.036;2023-06-24T04:37:15;5.07;;;4.67;;
57551;SDS011;43379;48.160;14.036;2023-06-24T04:39:40;5.67;;;4.73;;
57551;SDS011;43379;48.160;14.036;2023-06-24T04:42:06;5.20;;;4.70;;
57551;SDS011;43379;48.160;14.036;2023-06-24T04:44:32;5.10;;;4.60;;
57551;SDS011;43379;48.160;14.036;2023-06-24T04:46:58;5.83;;;4.90;;
57551;SDS011;43379;48.160;14.036;2023-06-24T04:49:23;5.07;;;4.57;;
57551;SDS011;43379;48.160;14.036;2023-06-24T04:51:49;6.73;;;4.70;;
57551;SDS011;43379;48.160;14.036;2023-06-24T04:54:15;6.43;;;5.13;;
57551;SDS011;43379;48.160;14.036;2023-06-24T04:56:40;5.47;;;4.90;;
57551;SDS011;43379;48.160;14.036;2023-06-24T04:59:06;5.73;;;5.23;;
57551;SDS011;43379;48.160;14.036;2023-06-24T05:01:32;5.07;;;4.67;;
57551;SDS011;43379;48.160;14.036;2023-06-24T05:03:58;10.83;;;5.00;;
57551;SDS011;43379;48.160;14.036;2023-06-24T05:06:23;4.80;;;4.37;;
57551;SDS011;43379;48.160;14.036;2023-06-24T05:08:49;5.40;;;4.70;;
57551;SDS011;43379;48.160;14.036;2023-06-24T05:11:15;5.07;;;4.67;;
57551;SDS011;43379;48.160;14.036;2023-06-24T05:13:41;5.40;;;4.90;;
57551;SDS011;43379;48.160;14.036;2023-06-24T05:16:06;5.27;;;4.50;;
57551;SDS011;43379;48.160;14.036;2023-06-24T05:18:32;5.23;;;4.73;;
57551;SDS011;43379;48.160;14.036;2023-06-24T05:20:57;4.87;;;4.47;;
57551;SDS011;43379;48.160;14.036;2023-06-24T05:23:23;5.57;;;5.07;;
57551;SDS011;43379;48.160;14.036;2023-06-24T05:25:49;5.17;;;4.70;;
57551;SDS011;43379;48.160;14.036;2023-06-24T05:28:14;6.07;;;5.57;;
57551;SDS011;43379;48.160;14.036;2023-06-24T05:30:40;6.63;;;6.00;;
57551;SDS011;43379;48.160;14.036;2023-06-24T05:33:06;7.70;;;7.00;;
57551;SDS011;43379;48.160;14.036;2023-06-24T05:35:32;7.50;;;6.80;;
57551;SDS011;43379;48.160;14.036;2023-06-24T05:37:58;6.50;;;5.90;;
57551;SDS011;43379;48.160;14.036;2023-06-24T05:40:24;5.87;;;5.37;;
57551;SDS011;43379;48.160;14.036;2023-06-24T05:42:49;6.90;;;6.30;;
57551;SDS011;43379;48.160;14.036;2023-06-24T05:45:17;6.43;;;5.93;;
57551;SDS011;43379;48.160;14.036;2023-06-24T05:47:42;6.00;;;5.50;;
57551;SDS011;43379;48.160;14.036;2023-06-24T05:50:08;6.23;;;5.73;;
57551;SDS011;43379;48.160;14.036;2023-06-24T05:52:34;7.70;;;5.90;;
57551;SDS011;43379;48.160;14.036;2023-06-24T05:54:59;8.67;;;5.90;;
57551;SDS011;43379;48.160;14.036;2023-06-24T05:57:25;6.73;;;6.17;;
57551;SDS011;43379;48.160;14.036;2023-06-24T05:59:51;6.60;;;6.10;;
57551;SDS011;43379;48.160;14.036;2023-06-24T06:02:16;7.40;;;5.77;;
57551;SDS011;43379;48.160;14.036;2023-06-24T06:04:42;6.70;;;6.10;;
57551;SDS011;43379;48.160;14.036;2023-06-24T06:07:08;5.87;;;5.37;;
57551;SDS011;43379;48.160;14.036;2023-06-24T06:09:33;6.13;;;5.63;;
57551;SDS011;43379;48.160;14.036;2023-06-24T06:11:59;6.53;;;5.93;;
57551;SDS011;43379;48.160;14.036;2023-06-24T06:14:24;6.10;;;5.60;;
57551;SDS011;43379;48.160;14.036;2023-06-24T06:16:50;6.50;;;5.97;;
57551;SDS011;43379;48.160;14.036;2023-06-24T06:19:16;6.10;;;5.50;;
57551;SDS011;43379;48.160;14.036;2023-06-24T06:21:41;6.90;;;6.30;;
57551;SDS011;43379;48.160;14.036;2023-06-24T06:24:07;6.33;;;5.73;;
57551;SDS011;43379;48.160;14.036;2023-06-24T06:26:33;7.40;;;6.80;;
57551;SDS011;43379;48.160;14.036;2023-06-24T06:28:58;7.53;;;6.83;;
57551;SDS011;43379;48.160;14.036;2023-06-24T06:31:24;8.07;;;7.27;;
57551;SDS011;43379;48.160;14.036;2023-06-24T06:33:51;6.20;;;5.47;;
57551;SDS011;43379;48.160;14.036;2023-06-24T06:36:16;8.10;;;5.90;;
57551;SDS011;43379;48.160;14.036;2023-06-24T06:38:42;6.63;;;6.13;;
57551;SDS011;43379;48.160;14.036;2023-06-24T06:41:08;7.23;;;6.60;;
57551;SDS011;43379;48.160;14.036;2023-06-24T06:43:33;6.40;;;5.80;;
57551;SDS011;43379;48.160;14.036;2023-06-24T06:45:59;7.23;;;6.63;;
57551;SDS011;43379;48.160;14.036;2023-06-24T06:48:25;6.93;;;6.20;;
57551;SDS011;43379;48.160;14.036;2023-06-24T06:50:50;7.50;;;6.80;;
57551;SDS011;43379;48.160;14.036;2023-06-24T06:53:18;6.40;;;5.70;;
57551;SDS011;43379;48.160;14.036;2023-06-24T06:55:43;6.97;;;6.37;;
57551;SDS011;43379;48.160;14.036;2023-06-24T06:58:09;7.70;;;6.37;;
57551;SDS011;43379;48.160;14.036;2023-06-24T07:00:35;6.13;;;5.60;;
57551;SDS011;43379;48.160;14.036;2023-06-24T07:03:01;6.30;;;5.77;;
57551;SDS011;43379;48.160;14.036;2023-06-24T07:05:27;6.07;;;5.57;;
57551;SDS011;43379;48.160;14.036;2023-06-24T07:07:52;7.27;;;5.50;;
57551;SDS011;43379;48.160;14.036;2023-06-24T07:10:18;6.90;;;5.40;;
57551;SDS011;43379;48.160;14.036;2023-06-24T07:12:44;6.47;;;5.83;;
57551;SDS011;43379;48.160;14.036;2023-06-24T07:15:10;5.63;;;5.23;;
57551;SDS011;43379;48.160;14.036;2023-06-24T07:17:36;6.47;;;5.97;;
57551;SDS011;43379;48.160;14.036;2023-06-24T07:20:02;5.40;;;4.97;;
57551;SDS011;43379;48.160;14.036;2023-06-24T07:22:28;5.13;;;4.73;;
57551;SDS011;43379;48.160;14.036;2023-06-24T07:24:55;5.07;;;4.67;;
57551;SDS011;43379;48.160;14.036;2023-06-24T07:27:21;4.97;;;4.47;;
57551;SDS011;43379;48.160;14.036;2023-06-24T07:29:47;5.07;;;4.63;;
57551;SDS011;43379;48.160;14.036;2023-06-24T07:32:13;5.13;;;4.60;;
57551;SDS011;43379;48.160;14.036;2023-06-24T07:34:38;5.37;;;4.97;;
57551;SDS011;43379;48.160;14.036;2023-06-24T07:37:04;5.77;;;5.27;;
57551;SDS011;43379;48.160;14.036;2023-06-24T07:39:29;5.10;;;4.70;;
57551;SDS011;43379;48.160;14.036;2023-06-24T07:41:55;5.43;;;5.03;;
57551;SDS011;43379;48.160;14.036;2023-06-24T07:44:21;5.10;;;4.70;;
57551;SDS011;43379;48.160;14.036;2023-06-24T07:46:46;6.27;;;5.67;;
57551;SDS011;43379;48.160;14.036;2023-06-24T07:49:13;6.10;;;5.00;;
57551;SDS011;43379;48.160;14.036;2023-06-24T07:51:39;5.63;;;5.13;;
57551;SDS011;43379;48.160;14.036;2023-06-24T07:54:04;6.47;;;5.87;;
57551;SDS011;43379;48.160;14.036;2023-06-24T07:56:30;6.63;;;6.00;;
57551;SDS011;43379;48.160;14.036;2023-06-24T07:58:56;6.27;;;5.77;;
57551;SDS011;43379;48.160;14.036;2023-06-24T08:01:21;5.80;;;5.30;;
57551;SDS011;43379;48.160;14.036;2023-06-24T08:03:47;7.40;;;6.70;;
57551;SDS011;43379;48.160;14.036;2023-06-24T08:06:13;5.83;;;5.33;;
57551;SDS011;43379;48.160;14.036;2023-06-24T08:08:38;6.47;;;5.97;;
57551;SDS011;43379;48.160;14.036;2023-06-24T08:11:04;7.97;;;6.10;;
57551;SDS011;43379;48.160;14.036;2023-06-24T08:13:30;6.20;;;5.70;;
57551;SDS011;43379;48.160;14.036;2023-06-24T08:15:56;6.70;;;6.10;;
57551;SDS011;43379;48.160;14.036;2023-06-24T08:18:22;6.70;;;6.10;;
57551;SDS011;43379;48.160;14.036;2023-06-24T08:20:47;7.20;;;6.60;;
57551;SDS011;43379;48.160;14.036;2023-06-24T08:23:13;7.33;;;6.73;;
57551;SDS011;43379;48.160;14.036;2023-06-24T08:25:39;8.83;;;6.27;;
57551;SDS011;43379;48.160;14.036;2023-06-24T08:28:04;6.40;;;5.90;;
57551;SDS011;43379;48.160;14.036;2023-06-24T08:30:30;6.73;;;6.13;;
57551;SDS011;43379;48.160;14.036;2023-06-24T08:32:56;7.60;;;7.00;;
57551;SDS011;43379;48.160;14.036;2023-06-24T08:35:21;6.73;;;6.13;;
57551;SDS011;43379;48.160;14.036;2023-06-24T08:37:47;7.03;;;6.43;;
57551;SDS011;43379;48.160;14.036;2023-06-24T08:40:12;7.10;;;6.50;;
57551;SDS011;43379;48.160;14.036;2023-06-24T08:42:38;9.10;;;7.63;;
57551;SDS011;43379;48.160;14.036;2023-06-24T08:45:04;8.10;;;7.30;;
57551;SDS011;43379;48.160;14.036;2023-06-24T08:47:30;8.00;;;7.40;;
57551;SDS011;43379;48.160;14.036;2023-06-24T08:50:10;7.30;;;6.57;;
57551;SDS011;43379;48.160;14.036;2023-06-24T08:52:38;7.70;;;7.10;;
57551;SDS011;43379;48.160;14.036;2023-06-24T08:55:07;8.17;;;7.47;;
57551;SDS011;43379;48.160;14.036;2023-06-24T08:57:35;6.90;;;6.30;;
57551;SDS011;43379;48.160;14.036;2023-06-24T09:00:01;8.17;;;7.47;;
57551;SDS011;43379;48.160;14.036;2023-06-24T09:02:29;7.53;;;6.93;;
57551;SDS011;43379;48.160;14.036;2023-06-24T09:04:57;7.07;;;6.47;;
57551;SDS011;43379;48.160;14.036;2023-06-24T09:07:26;7.03;;;6.43;;
57551;SDS011;43379;48.160;14.036;2023-06-24T09:09:55;7.57;;;6.97;;
57551;SDS011;43379;48.160;14.036;2023-06-24T09:12:21;7.20;;;6.60;;
57551;SDS011;43379;48.160;14.036;2023-06-24T09:14:49;6.60;;;6.10;;
57551;SDS011;43379;48.160;14.036;2023-06-24T09:17:16;6.43;;;5.83;;
57551;SDS011;43379;48.160;14.036;2023-06-24T09:19:42;7.50;;;6.80;;
57551;SDS011;43379;48.160;14.036;2023-06-24T09:22:08;7.30;;;6.60;;
57551;SDS011;43379;48.160;14.036;2023-06-24T09:24:41;6.60;;;6.03;;
57551;SDS011;43379;48.160;14.036;2023-06-24T09:27:08;7.60;;;6.90;;
57551;SDS011;43379;48.160;14.036;2023-06-24T09:29:34;6.77;;;6.17;;
57551;SDS011;43379;48.160;14.036;2023-06-24T09:32:03;7.00;;;6.40;;
57551;SDS011;43379;48.160;14.036;2023-06-24T09:34:30;5.70;;;5.13;;
57551;SDS011;43379;48.160;14.036;2023-06-24T09:36:57;6.40;;;5.90;;
57551;SDS011;43379;48.160;14.036;2023-06-24T09:39:24;5.70;;;5.30;;
57551;SDS011;43379;48.160;14.036;2023-06-24T09:42:00;5.80;;;5.30;;
57551;SDS011;43379;48.160;14.036;2023-06-24T09:44:26;7.10;;;5.57;;
57551;SDS011;43379;48.160;14.036;2023-06-24T09:46:53;6.20;;;5.70;;
57551;SDS011;43379;48.160;14.036;2023-06-24T09:49:19;5.30;;;4.87;;
57551;SDS011;43379;48.160;14.036;2023-06-24T09:51:46;5.13;;;4.73;;
57551;SDS011;43379;48.160;14.036;2023-06-24T09:54:13;5.63;;;5.17;;
57551;SDS011;43379;48.160;14.036;2023-06-24T09:56:45;9.50;;;5.93;;
57551;SDS011;43379;48.160;14.036;2023-06-24T09:59:14;6.47;;;5.70;;
57551;SDS011;43379;48.160;14.036;2023-06-24T10:01:43;6.17;;;5.20;;
57551;SDS011;43379;48.160;14.036;2023-06-24T10:04:13;5.93;;;5.33;;
57551;SDS011;43379;48.160;14.036;2023-06-24T10:06:41;5.87;;;5.37;;
57551;SDS011;43379;48.160;14.036;2023-06-24T10:09:07;5.00;;;4.60;;
57551;SDS011;43379;48.160;14.036;2023-06-24T10:11:33;6.23;;;5.73;;
57551;SDS011;43379;48.160;14.036;2023-06-24T10:13:59;5.63;;;5.10;;
57551;SDS011;43379;48.160;14.036;2023-06-24T10:16:26;6.00;;;5.40;;
57551;SDS011;43379;48.160;14.036;2023-06-24T10:18:51;4.83;;;4.37;;
57551;SDS011;43379;48.160;14.036;2023-06-24T10:21:24;5.23;;;4.80;;
57551;SDS011;43379;48.160;14.036;2023-06-24T10:24:11;5.07;;;4.27;;
57551;SDS011;43379;48.160;14.036;2023-06-24T10:26:39;7.50;;;6.80;;
57551;SDS011;43379;48.160;14.036;2023-06-24T10:31:50;5.60;;;5.10;;
57551;SDS011;43379;48.160;14.036;2023-06-24T10:34:24;6.63;;;6.03;;
57551;SDS011;43379;48.160;14.036;2023-06-24T10:39:50;7.30;;;5.40;;
57551;SDS011;43379;48.160;14.036;2023-06-24T10:44:50;5.87;;;5.37;;
57551;SDS011;43379;48.160;14.036;2023-06-24T10:47:17;6.40;;;5.80;;
57551;SDS011;43379;48.160;14.036;2023-06-24T10:49:43;6.37;;;5.83;;
57551;SDS011;43379;48.160;14.036;2023-06-24T10:52:09;6.80;;;6.20;;
57551;SDS011;43379;48.160;14.036;2023-06-24T10:54:36;6.20;;;5.70;;
57551;SDS011;43379;48.160;14.036;2023-06-24T10:57:03;6.53;;;5.90;;
57551;SDS011;43379;48.160;14.036;2023-06-24T10:59:51;7.13;;;6.43;;
57551;SDS011;43379;48.160;14.036;2023-06-24T11:02:17;6.33;;;5.83;;
57551;SDS011;43379;48.160;14.036;2023-06-24T11:04:48;6.20;;;5.70;;
57551;SDS011;43379;48.160;14.036;2023-06-24T11:07:25;6.10;;;5.53;;
57551;SDS011;43379;48.160;14.036;2023-06-24T11:09:55;6.40;;;5.80;;
57551;SDS011;43379;48.160;14.036;2023-06-24T11:12:25;6.90;;;6.30;;
57551;SDS011;43379;48.160;14.036;2023-06-24T11:14:57;5.40;;;5.00;;
57551;SDS011;43379;48.160;14.036;2023-06-24T11:17:24;6.33;;;5.83;;
57551;SDS011;43379;48.160;14.036;2023-06-24T11:19:54;6.40;;;5.80;;
57551;SDS011;43379;48.160;14.036;2023-06-24T11:22:21;6.07;;;5.67;;
57551;SDS011;43379;48.160;14.036;2023-06-24T11:24:48;6.17;;;5.67;;
57551;SDS011;43379;48.160;14.036;2023-06-24T11:27:15;6.70;;;6.10;;
57551;SDS011;43379;48.160;14.036;2023-06-24T11:29:40;6.27;;;5.60;;
57551;SDS011;43379;48.160;14.036;2023-06-24T11:32:07;6.10;;;5.60;;
57551;SDS011;43379;48.160;14.036;2023-06-24T11:34:34;5.67;;;5.17;;
57551;SDS011;43379;48.160;14.036;2023-06-24T11:37:12;6.90;;;5.57;;
57551;SDS011;43379;48.160;14.036;2023-06-24T11:39:39;6.00;;;5.60;;
57551;SDS011;43379;48.160;14.036;2023-06-24T11:42:08;5.77;;;5.20;;
57551;SDS011;43379;48.160;14.036;2023-06-24T11:44:34;5.63;;;5.13;;
57551;SDS011;43379;48.160;14.036;2023-06-24T11:47:07;6.10;;;5.60;;
57551;SDS011;43379;48.160;14.036;2023-06-24T11:49:52;5.40;;;5.00;;
57551;SDS011;43379;48.160;14.036;2023-06-24T11:52:27;5.73;;;5.33;;
57551;SDS011;43379;48.160;14.036;2023-06-24T11:55:18;5.37;;;4.70;;
57551;SDS011;43379;48.160;14.036;2023-06-24T11:57:51;5.40;;;5.00;;
57551;SDS011;43379;48.160;14.036;2023-06-24T12:00:19;5.63;;;5.00;;
57551;SDS011;43379;48.160;14.036;2023-06-24T12:02:48;7.40;;;4.97;;
57551;SDS011;43379;48.160;14.036;2023-06-24T12:05:22;6.13;;;5.63;;
57551;SDS011;43379;48.160;14.036;2023-06-24T12:08:00;5.93;;;5.37;;
57551;SDS011;43379;48.160;14.036;2023-06-24T12:10:27;5.40;;;4.90;;
57551;SDS011;43379;48.160;14.036;2023-06-24T12:12:54;5.70;;;5.20;;
57551;SDS011;43379;48.160;14.036;2023-06-24T12:15:21;7.40;;;5.17;;
57551;SDS011;43379;48.160;14.036;2023-06-24T12:17:47;5.07;;;4.67;;
57551;SDS011;43379;48.160;14.036;2023-06-24T12:20:13;5.23;;;4.73;;
57551;SDS011;43379;48.160;14.036;2023-06-24T12:22:40;4.80;;;4.40;;
57551;SDS011;43379;48.160;14.036;2023-06-24T12:25:06;5.13;;;4.73;;
57551;SDS011;43379;48.160;14.036;2023-06-24T12:27:32;3.90;;;3.60;;
57551;SDS011;43379;48.160;14.036;2023-06-24T12:29:58;4.90;;;4.40;;
57551;SDS011;43379;48.160;14.036;2023-06-24T12:32:24;4.40;;;4.00;;
57551;SDS011;43379;48.160;14.036;2023-06-24T12:34:51;4.80;;;4.30;;
57551;SDS011;43379;48.160;14.036;2023-06-24T12:37:16;5.33;;;3.87;;
57551;SDS011;43379;48.160;14.036;2023-06-24T12:39:43;4.90;;;4.20;;
57551;SDS011;43379;48.160;14.036;2023-06-24T12:42:09;4.50;;;4.20;;
57551;SDS011;43379;48.160;14.036;2023-06-24T12:44:35;4.47;;;4.10;;
57551;SDS011;43379;48.160;14.036;2023-06-24T12:47:01;4.23;;;3.83;;
57551;SDS011;43379;48.160;14.036;2023-06-24T12:49:27;4.03;;;3.67;;
57551;SDS011;43379;48.160;14.036;2023-06-24T12:51:53;4.90;;;4.50;;
57551;SDS011;43379;48.160;14.036;2023-06-24T12:54:19;4.03;;;3.73;;
57551;SDS011;43379;48.160;14.036;2023-06-24T12:56:44;4.37;;;4.00;;
57551;SDS011;43379;48.160;14.036;2023-06-24T12:59:10;3.90;;;3.60;;
57551;SDS011;43379;48.160;14.036;2023-06-24T13:01:35;4.30;;;4.00;;
57551;SDS011;43379;48.160;14.036;2023-06-24T13:04:01;4.37;;;4.03;;
57551;SDS011;43379;48.160;14.036;2023-06-24T13:06:27;4.00;;;3.70;;
57551;SDS011;43379;48.160;14.036;2023-06-24T13:08:52;4.03;;;3.70;;
57551;SDS011;43379;48.160;14.036;2023-06-24T13:11:18;5.17;;;4.57;;
57551;SDS011;43379;48.160;14.036;2023-06-24T13:13:44;5.03;;;4.63;;
57551;SDS011;43379;48.160;14.036;2023-06-24T13:16:10;5.03;;;3.90;;
57551;SDS011;43379;48.160;14.036;2023-06-24T13:18:35;4.73;;;4.33;;
57551;SDS011;43379;48.160;14.036;2023-06-24T13:21:01;4.40;;;4.00;;
57551;SDS011;43379;48.160;14.036;2023-06-24T13:23:27;5.27;;;4.87;;
57551;SDS011;43379;48.160;14.036;2023-06-24T13:25:53;4.43;;;4.10;;
57551;SDS011;43379;48.160;14.036;2023-06-24T13:28:18;4.90;;;4.50;;
57551;SDS011;43379;48.160;14.036;2023-06-24T13:30:44;6.70;;;4.27;;
57551;SDS011;43379;48.160;14.036;2023-06-24T13:33:10;4.40;;;4.00;;
57551;SDS011;43379;48.160;14.036;2023-06-24T13:35:35;3.80;;;3.50;;
57551;SDS011;43379;48.160;14.036;2023-06-24T13:38:01;4.47;;;4.07;;
57551;SDS011;43379;48.160;14.036;2023-06-24T13:40:27;3.87;;;3.57;;
57551;SDS011;43379;48.160;14.036;2023-06-24T13:42:53;4.63;;;4.13;;
57551;SDS011;43379;48.160;14.036;2023-06-24T13:45:18;4.90;;;4.50;;
57551;SDS011;43379;48.160;14.036;2023-06-24T13:47:44;5.00;;;4.60;;
57551;SDS011;43379;48.160;14.036;2023-06-24T13:50:10;4.93;;;4.53;;
57551;SDS011;43379;48.160;14.036;2023-06-24T13:52:35;4.80;;;4.40;;
57551;SDS011;43379;48.160;14.036;2023-06-24T13:55:01;4.83;;;4.43;;
57551;SDS011;43379;48.160;14.036;2023-06-24T13:57:27;4.50;;;4.10;;
57551;SDS011;43379;48.160;14.036;2023-06-24T13:59:52;4.47;;;4.10;;
57551;SDS011;43379;48.160;14.036;2023-06-24T14:02:18;4.43;;;4.13;;
57551;SDS011;43379;48.160;14.036;2023-06-24T14:04:44;4.53;;;4.17;;
57551;SDS011;43379;48.160;14.036;2023-06-24T14:07:10;4.63;;;4.23;;
57551;SDS011;43379;48.160;14.036;2023-06-24T14:09:37;4.17;;;3.87;;
57551;SDS011;43379;48.160;14.036;2023-06-24T14:12:04;4.80;;;4.40;;
57551;SDS011;43379;48.160;14.036;2023-06-24T14:14:30;4.40;;;4.10;;
57551;SDS011;43379;48.160;14.036;2023-06-24T14:16:56;6.47;;;4.20;;
57551;SDS011;43379;48.160;14.036;2023-06-24T14:19:21;4.40;;;4.00;;
57551;SDS011;43379;48.160;14.036;2023-06-24T14:21:47;4.30;;;4.00;;
57551;SDS011;43379;48.160;14.036;2023-06-24T14:24:12;5.30;;;4.10;;
57551;SDS011;43379;48.160;14.036;2023-06-24T14:26:38;4.50;;;4.20;;
57551;SDS011;43379;48.160;14.036;2023-06-24T14:29:04;4.70;;;4.20;;
57551;SDS011;43379;48.160;14.036;2023-06-24T14:31:30;4.27;;;3.93;;
57551;SDS011;43379;48.160;14.036;2023-06-24T14:33:55;5.43;;;4.60;;
57551;SDS011;43379;48.160;14.036;2023-06-24T14:36:21;5.60;;;4.73;;
57551;SDS011;43379;48.160;14.036;2023-06-24T14:38:47;4.80;;;4.30;;
57551;SDS011;43379;48.160;14.036;2023-06-24T14:41:12;4.83;;;4.43;;
57551;SDS011;43379;48.160;14.036;2023-06-24T14:43:38;4.97;;;4.50;;
57551;SDS011;43379;48.160;14.036;2023-06-24T14:46:04;4.53;;;4.23;;
57551;SDS011;43379;48.160;14.036;2023-06-24T14:48:29;5.03;;;4.40;;
57551;SDS011;43379;48.160;14.036;2023-06-24T14:50:55;4.23;;;3.90;;
57551;SDS011;43379;48.160;14.036;2023-06-24T14:53:20;4.90;;;4.60;;